sensor_id;sensor_type;location;lat;lon;timestamp;P1;durP1;ratioP1;P2;durP2;ratioP2
73670;SDS011;61968;48.178;11.566;2022-08-19T00:01:45;2.47;;;2.28;;
73670;SDS011;61968;48.178;11.566;2022-08-19T00:04:15;2.63;;;2.40;;
73670;SDS011;61968;48.178;11.566;2022-08-19T00:06:44;2.75;;;2.55;;
73670;SDS011;61968;48.178;11.566;2022-08-19T00:09:12;2.70;;;2.50;;
73670;SDS011;61968;48.178;11.566;2022-08-19T00:11:41;2.28;;;2.08;;
73670;SDS011;61968;48.178;11.566;2022-08-19T00:14:11;2.22;;;2.05;;
73670;SDS011;61968;48.178;11.566;2022-08-19T00:16:41;2.38;;;2.17;;
73670;SDS011;61968;48.178;11.566;2022-08-19T00:19:09;3.40;;;2.05;;
73670;SDS011;61968;48.178;11.566;2022-08-19T00:21:36;2.88;;;2.67;;
73670;SDS011;61968;48.178;11.566;2022-08-19T00:24:04;1.90;;;1.80;;
73670;SDS011;61968;48.178;11.566;2022-08-19T00:26:31;2.10;;;1.70;;
73670;SDS011;61968;48.178;11.566;2022-08-19T00:28:58;1.98;;;1.83;;
73670;SDS011;61968;48.178;11.566;2022-08-19T00:31:27;1.80;;;1.70;;
73670;SDS011;61968;48.178;11.566;2022-08-19T00:33:54;1.67;;;1.58;;
73670;SDS011;61968;48.178;11.566;2022-08-19T00:36:20;1.95;;;1.83;;
73670;SDS011;61968;48.178;11.566;2022-08-19T00:38:47;3.45;;;2.50;;
73670;SDS011;61968;48.178;11.566;2022-08-19T00:41:13;4.47;;;3.15;;
73670;SDS011;61968;48.178;11.566;2022-08-19T00:43:41;3.00;;;2.80;;
73670;SDS011;61968;48.178;11.566;2022-08-19T00:46:08;6.13;;;2.83;;
73670;SDS011;61968;48.178;11.566;2022-08-19T00:48:36;3.72;;;3.08;;
73670;SDS011;61968;48.178;11.566;2022-08-19T00:51:03;2.00;;;1.90;;
73670;SDS011;61968;48.178;11.566;2022-08-19T00:53:30;3.55;;;3.25;;
73670;SDS011;61968;48.178;11.566;2022-08-19T00:55:58;2.72;;;2.53;;
73670;SDS011;61968;48.178;11.566;2022-08-19T00:58:28;2.67;;;2.47;;
73670;SDS011;61968;48.178;11.566;2022-08-19T01:00:56;3.10;;;2.80;;
73670;SDS011;61968;48.178;11.566;2022-08-19T01:03:23;3.45;;;3.05;;
73670;SDS011;61968;48.178;11.566;2022-08-19T01:05:51;2.80;;;2.60;;
73670;SDS011;61968;48.178;11.566;2022-08-19T01:08:19;4.57;;;4.13;;
73670;SDS011;61968;48.178;11.566;2022-08-19T01:10:47;5.15;;;4.65;;
73670;SDS011;61968;48.178;11.566;2022-08-19T01:13:17;3.20;;;2.90;;
73670;SDS011;61968;48.178;11.566;2022-08-19T01:15:47;3.13;;;2.83;;
73670;SDS011;61968;48.178;11.566;2022-08-19T01:18:18;4.35;;;3.25;;
73670;SDS011;61968;48.178;11.566;2022-08-19T01:20:45;4.40;;;3.97;;
73670;SDS011;61968;48.178;11.566;2022-08-19T01:23:14;5.78;;;2.97;;
73670;SDS011;61968;48.178;11.566;2022-08-19T01:25:44;3.90;;;3.50;;
73670;SDS011;61968;48.178;11.566;2022-08-19T01:28:15;5.28;;;3.60;;
73670;SDS011;61968;48.178;11.566;2022-08-19T01:30:45;3.60;;;3.30;;
73670;SDS011;61968;48.178;11.566;2022-08-19T01:33:11;5.88;;;3.78;;
73670;SDS011;61968;48.178;11.566;2022-08-19T01:35:38;5.50;;;3.38;;
73670;SDS011;61968;48.178;11.566;2022-08-19T01:38:07;4.07;;;3.72;;
73670;SDS011;61968;48.178;11.566;2022-08-19T01:40:38;4.30;;;3.90;;
73670;SDS011;61968;48.178;11.566;2022-08-19T01:43:07;8.00;;;4.88;;
73670;SDS011;61968;48.178;11.566;2022-08-19T01:45:33;3.45;;;3.15;;
73670;SDS011;61968;48.178;11.566;2022-08-19T01:48:01;5.07;;;3.90;;
73670;SDS011;61968;48.178;11.566;2022-08-19T01:50:28;5.53;;;4.38;;
73670;SDS011;61968;48.178;11.566;2022-08-19T01:52:55;6.55;;;4.53;;
73670;SDS011;61968;48.178;11.566;2022-08-19T01:55:22;8.57;;;5.70;;
73670;SDS011;61968;48.178;11.566;2022-08-19T01:57:52;4.88;;;4.25;;
73670;SDS011;61968;48.178;11.566;2022-08-19T02:00:23;7.95;;;5.93;;
73670;SDS011;61968;48.178;11.566;2022-08-19T02:02:51;5.28;;;4.78;;
73670;SDS011;61968;48.178;11.566;2022-08-19T02:05:18;8.23;;;5.32;;
73670;SDS011;61968;48.178;11.566;2022-08-19T02:07:46;4.80;;;3.20;;
73670;SDS011;61968;48.178;11.566;2022-08-19T02:10:14;5.75;;;3.67;;
73670;SDS011;61968;48.178;11.566;2022-08-19T02:12:46;5.22;;;4.57;;
73670;SDS011;61968;48.178;11.566;2022-08-19T02:15:15;3.88;;;3.58;;
73670;SDS011;61968;48.178;11.566;2022-08-19T02:17:43;5.22;;;4.72;;
73670;SDS011;61968;48.178;11.566;2022-08-19T02:20:10;5.95;;;5.13;;
73670;SDS011;61968;48.178;11.566;2022-08-19T02:22:38;4.18;;;3.78;;
73670;SDS011;61968;48.178;11.566;2022-08-19T02:25:06;6.38;;;4.53;;
73670;SDS011;61968;48.178;11.566;2022-08-19T02:27:34;4.65;;;4.22;;
73670;SDS011;61968;48.178;11.566;2022-08-19T02:30:01;6.72;;;3.83;;
73670;SDS011;61968;48.178;11.566;2022-08-19T02:32:32;5.18;;;3.95;;
73670;SDS011;61968;48.178;11.566;2022-08-19T02:34:58;5.38;;;4.10;;
73670;SDS011;61968;48.178;11.566;2022-08-19T02:37:25;3.80;;;3.35;;
73670;SDS011;61968;48.178;11.566;2022-08-19T02:40:10;6.57;;;3.90;;
73670;SDS011;61968;48.178;11.566;2022-08-19T02:42:37;4.70;;;2.90;;
73670;SDS011;61968;48.178;11.566;2022-08-19T02:45:06;2.85;;;2.65;;
73670;SDS011;61968;48.178;11.566;2022-08-19T02:47:34;4.45;;;4.05;;
73670;SDS011;61968;48.178;11.566;2022-08-19T02:50:00;3.40;;;2.33;;
73670;SDS011;61968;48.178;11.566;2022-08-19T02:52:29;5.25;;;3.08;;
73670;SDS011;61968;48.178;11.566;2022-08-19T02:54:55;6.10;;;3.50;;
73670;SDS011;61968;48.178;11.566;2022-08-19T02:57:22;3.70;;;2.65;;
73670;SDS011;61968;48.178;11.566;2022-08-19T02:59:57;3.67;;;2.75;;
73670;SDS011;61968;48.178;11.566;2022-08-19T03:02:27;3.58;;;2.78;;
73670;SDS011;61968;48.178;11.566;2022-08-19T03:04:55;2.47;;;2.03;;
73670;SDS011;61968;48.178;11.566;2022-08-19T03:07:21;3.22;;;2.72;;
73670;SDS011;61968;48.178;11.566;2022-08-19T03:09:50;3.70;;;3.35;;
73670;SDS011;61968;48.178;11.566;2022-08-19T03:12:20;3.58;;;2.95;;
73670;SDS011;61968;48.178;11.566;2022-08-19T03:14:46;3.13;;;2.65;;
73670;SDS011;61968;48.178;11.566;2022-08-19T03:17:13;3.05;;;2.70;;
73670;SDS011;61968;48.178;11.566;2022-08-19T03:19:39;3.30;;;3.00;;
73670;SDS011;61968;48.178;11.566;2022-08-19T03:22:07;4.82;;;2.75;;
73670;SDS011;61968;48.178;11.566;2022-08-19T03:24:33;3.00;;;2.55;;
73670;SDS011;61968;48.178;11.566;2022-08-19T03:27:03;3.00;;;2.75;;
73670;SDS011;61968;48.178;11.566;2022-08-19T03:29:32;3.88;;;3.42;;
73670;SDS011;61968;48.178;11.566;2022-08-19T03:31:58;4.53;;;3.50;;
73670;SDS011;61968;48.178;11.566;2022-08-19T03:34:27;3.15;;;2.70;;
73670;SDS011;61968;48.178;11.566;2022-08-19T03:36:57;3.28;;;2.70;;
73670;SDS011;61968;48.178;11.566;2022-08-19T03:39:27;4.57;;;3.17;;
73670;SDS011;61968;48.178;11.566;2022-08-19T03:41:54;2.72;;;2.50;;
73670;SDS011;61968;48.178;11.566;2022-08-19T03:44:22;3.50;;;3.20;;
73670;SDS011;61968;48.178;11.566;2022-08-19T03:46:50;4.97;;;3.55;;
73670;SDS011;61968;48.178;11.566;2022-08-19T03:49:17;2.63;;;2.42;;
73670;SDS011;61968;48.178;11.566;2022-08-19T03:51:45;4.60;;;2.80;;
73670;SDS011;61968;48.178;11.566;2022-08-19T03:54:13;4.15;;;3.50;;
73670;SDS011;61968;48.178;11.566;2022-08-19T03:56:43;2.95;;;2.75;;
73670;SDS011;61968;48.178;11.566;2022-08-19T03:59:11;3.40;;;3.08;;
73670;SDS011;61968;48.178;11.566;2022-08-19T04:01:40;4.85;;;2.90;;
73670;SDS011;61968;48.178;11.566;2022-08-19T04:04:07;3.75;;;3.45;;
73670;SDS011;61968;48.178;11.566;2022-08-19T04:06:34;4.35;;;3.95;;
73670;SDS011;61968;48.178;11.566;2022-08-19T04:09:04;4.30;;;3.28;;
73670;SDS011;61968;48.178;11.566;2022-08-19T04:11:34;4.97;;;3.38;;
73670;SDS011;61968;48.178;11.566;2022-08-19T04:14:08;5.18;;;3.10;;
73670;SDS011;61968;48.178;11.566;2022-08-19T04:16:35;3.10;;;2.60;;
73670;SDS011;61968;48.178;11.566;2022-08-19T04:19:03;3.33;;;3.03;;
73670;SDS011;61968;48.178;11.566;2022-08-19T04:21:30;4.90;;;3.10;;
73670;SDS011;61968;48.178;11.566;2022-08-19T04:23:57;3.33;;;3.08;;
73670;SDS011;61968;48.178;11.566;2022-08-19T04:26:26;4.85;;;3.80;;
73670;SDS011;61968;48.178;11.566;2022-08-19T04:28:57;3.10;;;2.80;;
73670;SDS011;61968;48.178;11.566;2022-08-19T04:31:27;4.82;;;3.33;;
73670;SDS011;61968;48.178;11.566;2022-08-19T04:33:54;5.43;;;4.22;;
73670;SDS011;61968;48.178;11.566;2022-08-19T04:36:23;3.75;;;3.35;;
73670;SDS011;61968;48.178;11.566;2022-08-19T04:38:52;5.90;;;4.80;;
73670;SDS011;61968;48.178;11.566;2022-08-19T04:41:21;5.68;;;5.05;;
73670;SDS011;61968;48.178;11.566;2022-08-19T04:44:05;7.22;;;4.88;;
73670;SDS011;61968;48.178;11.566;2022-08-19T04:46:33;5.72;;;4.70;;
73670;SDS011;61968;48.178;11.566;2022-08-19T04:49:00;5.72;;;4.25;;
73670;SDS011;61968;48.178;11.566;2022-08-19T04:51:30;5.30;;;4.13;;
73670;SDS011;61968;48.178;11.566;2022-08-19T04:53:57;6.13;;;3.90;;
73670;SDS011;61968;48.178;11.566;2022-08-19T04:56:24;7.05;;;4.47;;
73670;SDS011;61968;48.178;11.566;2022-08-19T04:58:52;4.35;;;3.67;;
73670;SDS011;61968;48.178;11.566;2022-08-19T05:01:21;5.80;;;4.63;;
73670;SDS011;61968;48.178;11.566;2022-08-19T05:03:50;7.00;;;4.45;;
73670;SDS011;61968;48.178;11.566;2022-08-19T05:06:19;3.58;;;3.28;;
73670;SDS011;61968;48.178;11.566;2022-08-19T05:08:47;5.20;;;4.00;;
73670;SDS011;61968;48.178;11.566;2022-08-19T05:11:15;4.50;;;3.42;;
73670;SDS011;61968;48.178;11.566;2022-08-19T05:13:43;6.70;;;5.18;;
73670;SDS011;61968;48.178;11.566;2022-08-19T05:16:11;4.25;;;3.42;;
73670;SDS011;61968;48.178;11.566;2022-08-19T05:18:39;5.97;;;4.72;;
73670;SDS011;61968;48.178;11.566;2022-08-19T05:21:40;6.00;;;3.70;;
73670;SDS011;61968;48.178;11.566;2022-08-19T05:24:25;4.20;;;3.80;;
73670;SDS011;61968;48.178;11.566;2022-08-19T05:26:53;6.45;;;4.93;;
73670;SDS011;61968;48.178;11.566;2022-08-19T05:29:23;10.02;;;5.28;;
73670;SDS011;61968;48.178;11.566;2022-08-19T05:31:53;5.30;;;4.60;;
73670;SDS011;61968;48.178;11.566;2022-08-19T05:34:21;4.38;;;3.47;;
73670;SDS011;61968;48.178;11.566;2022-08-19T05:36:52;4.82;;;3.80;;
73670;SDS011;61968;48.178;11.566;2022-08-19T05:39:21;4.47;;;3.90;;
73670;SDS011;61968;48.178;11.566;2022-08-19T05:41:49;5.10;;;3.10;;
73670;SDS011;61968;48.178;11.566;2022-08-19T05:44:17;12.77;;;4.95;;
73670;SDS011;61968;48.178;11.566;2022-08-19T05:46:47;7.20;;;4.68;;
73670;SDS011;61968;48.178;11.566;2022-08-19T05:49:14;3.97;;;3.58;;
73670;SDS011;61968;48.178;11.566;2022-08-19T05:51:42;6.57;;;3.95;;
73670;SDS011;61968;48.178;11.566;2022-08-19T05:54:10;6.47;;;4.45;;
73670;SDS011;61968;48.178;11.566;2022-08-19T05:56:38;3.72;;;3.40;;
73670;SDS011;61968;48.178;11.566;2022-08-19T05:59:05;5.97;;;3.75;;
73670;SDS011;61968;48.178;11.566;2022-08-19T06:01:36;5.10;;;3.78;;
73670;SDS011;61968;48.178;11.566;2022-08-19T06:04:03;5.53;;;4.55;;
73670;SDS011;61968;48.178;11.566;2022-08-19T06:06:30;7.82;;;4.63;;
73670;SDS011;61968;48.178;11.566;2022-08-19T06:08:59;5.65;;;4.30;;
73670;SDS011;61968;48.178;11.566;2022-08-19T06:11:33;7.55;;;5.70;;
73670;SDS011;61968;48.178;11.566;2022-08-19T06:14:02;7.47;;;5.65;;
73670;SDS011;61968;48.178;11.566;2022-08-19T06:16:33;14.73;;;4.97;;
73670;SDS011;61968;48.178;11.566;2022-08-19T06:19:01;9.50;;;5.10;;
73670;SDS011;61968;48.178;11.566;2022-08-19T06:21:35;4.63;;;3.95;;
73670;SDS011;61968;48.178;11.566;2022-08-19T06:24:03;4.72;;;4.15;;
73670;SDS011;61968;48.178;11.566;2022-08-19T06:26:32;6.20;;;5.53;;
73670;SDS011;61968;48.178;11.566;2022-08-19T06:29:00;5.50;;;3.95;;
73670;SDS011;61968;48.178;11.566;2022-08-19T06:31:27;7.78;;;5.47;;
73670;SDS011;61968;48.178;11.566;2022-08-19T06:33:56;5.15;;;4.40;;
73670;SDS011;61968;48.178;11.566;2022-08-19T06:36:24;5.10;;;4.60;;
73670;SDS011;61968;48.178;11.566;2022-08-19T06:38:56;5.40;;;4.03;;
73670;SDS011;61968;48.178;11.566;2022-08-19T06:41:23;10.13;;;6.15;;
73670;SDS011;61968;48.178;11.566;2022-08-19T06:43:51;10.93;;;6.15;;
73670;SDS011;61968;48.178;11.566;2022-08-19T06:46:18;8.57;;;6.15;;
73670;SDS011;61968;48.178;11.566;2022-08-19T06:48:45;8.48;;;7.18;;
73670;SDS011;61968;48.178;11.566;2022-08-19T06:51:13;7.82;;;7.03;;
73670;SDS011;61968;48.178;11.566;2022-08-19T06:53:43;6.45;;;5.43;;
73670;SDS011;61968;48.178;11.566;2022-08-19T06:56:11;6.28;;;5.00;;
73670;SDS011;61968;48.178;11.566;2022-08-19T06:58:38;6.22;;;5.43;;
73670;SDS011;61968;48.178;11.566;2022-08-19T07:01:06;7.57;;;6.63;;
73670;SDS011;61968;48.178;11.566;2022-08-19T07:03:34;7.43;;;5.65;;
73670;SDS011;61968;48.178;11.566;2022-08-19T07:06:02;8.90;;;6.10;;
73670;SDS011;61968;48.178;11.566;2022-08-19T07:08:29;9.57;;;6.88;;
73670;SDS011;61968;48.178;11.566;2022-08-19T07:10:55;6.88;;;5.88;;
73670;SDS011;61968;48.178;11.566;2022-08-19T07:13:23;11.00;;;7.32;;
73670;SDS011;61968;48.178;11.566;2022-08-19T07:15:50;7.35;;;6.53;;
73670;SDS011;61968;48.178;11.566;2022-08-19T07:18:18;8.80;;;6.10;;
73670;SDS011;61968;48.178;11.566;2022-08-19T07:20:46;9.70;;;6.97;;
73670;SDS011;61968;48.178;11.566;2022-08-19T07:23:13;10.82;;;8.05;;
73670;SDS011;61968;48.178;11.566;2022-08-19T07:25:40;9.18;;;7.60;;
73670;SDS011;61968;48.178;11.566;2022-08-19T07:28:08;11.27;;;8.48;;
73670;SDS011;61968;48.178;11.566;2022-08-19T07:30:36;9.55;;;7.05;;
73670;SDS011;61968;48.178;11.566;2022-08-19T07:33:05;11.07;;;9.25;;
73670;SDS011;61968;48.178;11.566;2022-08-19T07:35:33;18.17;;;8.50;;
73670;SDS011;61968;48.178;11.566;2022-08-19T07:38:00;16.33;;;11.13;;
73670;SDS011;61968;48.178;11.566;2022-08-19T07:40:28;20.45;;;12.65;;
73670;SDS011;61968;48.178;11.566;2022-08-19T07:42:55;16.60;;;12.38;;
73670;SDS011;61968;48.178;11.566;2022-08-19T07:45:22;12.68;;;7.80;;
73670;SDS011;61968;48.178;11.566;2022-08-19T07:47:49;18.38;;;13.38;;
73670;SDS011;61968;48.178;11.566;2022-08-19T07:50:15;14.18;;;10.88;;
73670;SDS011;61968;48.178;11.566;2022-08-19T07:52:44;16.30;;;11.20;;
73670;SDS011;61968;48.178;11.566;2022-08-19T07:55:11;14.07;;;10.27;;
73670;SDS011;61968;48.178;11.566;2022-08-19T07:57:38;14.95;;;11.13;;
73670;SDS011;61968;48.178;11.566;2022-08-19T08:00:05;15.13;;;11.77;;
73670;SDS011;61968;48.178;11.566;2022-08-19T08:02:33;11.98;;;8.77;;
73670;SDS011;61968;48.178;11.566;2022-08-19T08:04:59;17.58;;;12.18;;
73670;SDS011;61968;48.178;11.566;2022-08-19T08:07:45;11.15;;;8.38;;
73670;SDS011;61968;48.178;11.566;2022-08-19T08:10:29;19.02;;;11.98;;
73670;SDS011;61968;48.178;11.566;2022-08-19T08:12:55;20.27;;;13.43;;
73670;SDS011;61968;48.178;11.566;2022-08-19T08:15:22;18.05;;;11.55;;
73670;SDS011;61968;48.178;11.566;2022-08-19T08:17:49;17.50;;;11.25;;
73670;SDS011;61968;48.178;11.566;2022-08-19T08:20:15;15.50;;;9.00;;
73670;SDS011;61968;48.178;11.566;2022-08-19T08:22:43;13.38;;;9.60;;
73670;SDS011;61968;48.178;11.566;2022-08-19T08:25:29;16.15;;;10.90;;
73670;SDS011;61968;48.178;11.566;2022-08-19T08:27:56;12.63;;;9.43;;
73670;SDS011;61968;48.178;11.566;2022-08-19T08:30:25;17.58;;;11.23;;
73670;SDS011;61968;48.178;11.566;2022-08-19T08:32:53;11.88;;;9.10;;
73670;SDS011;61968;48.178;11.566;2022-08-19T08:35:21;14.82;;;10.90;;
73670;SDS011;61968;48.178;11.566;2022-08-19T08:37:51;13.68;;;8.77;;
73670;SDS011;61968;48.178;11.566;2022-08-19T08:40:22;15.10;;;9.20;;
73670;SDS011;61968;48.178;11.566;2022-08-19T08:42:54;18.17;;;11.07;;
73670;SDS011;61968;48.178;11.566;2022-08-19T08:45:25;14.43;;;9.57;;
73670;SDS011;61968;48.178;11.566;2022-08-19T08:47:53;17.48;;;10.80;;
73670;SDS011;61968;48.178;11.566;2022-08-19T08:50:25;18.45;;;10.65;;
73670;SDS011;61968;48.178;11.566;2022-08-19T08:52:59;17.20;;;12.07;;
73670;SDS011;61968;48.178;11.566;2022-08-19T08:55:26;18.98;;;12.00;;
73670;SDS011;61968;48.178;11.566;2022-08-19T08:57:55;15.52;;;10.55;;
73670;SDS011;61968;48.178;11.566;2022-08-19T09:00:27;18.20;;;12.93;;
73670;SDS011;61968;48.178;11.566;2022-08-19T09:02:56;21.35;;;13.95;;
73670;SDS011;61968;48.178;11.566;2022-08-19T09:05:25;19.88;;;13.32;;
73670;SDS011;61968;48.178;11.566;2022-08-19T09:08:02;19.40;;;13.02;;
73670;SDS011;61968;48.178;11.566;2022-08-19T09:10:34;20.00;;;13.27;;
73670;SDS011;61968;48.178;11.566;2022-08-19T09:13:06;20.40;;;12.68;;
73670;SDS011;61968;48.178;11.566;2022-08-19T09:15:42;25.45;;;13.80;;
73670;SDS011;61968;48.178;11.566;2022-08-19T09:18:13;16.75;;;11.73;;
73670;SDS011;61968;48.178;11.566;2022-08-19T09:20:41;14.10;;;9.80;;
73670;SDS011;61968;48.178;11.566;2022-08-19T09:23:09;16.55;;;12.07;;
73670;SDS011;61968;48.178;11.566;2022-08-19T09:25:35;20.42;;;13.75;;
73670;SDS011;61968;48.178;11.566;2022-08-19T09:28:05;20.35;;;12.75;;
73670;SDS011;61968;48.178;11.566;2022-08-19T09:30:34;32.55;;;13.13;;
73670;SDS011;61968;48.178;11.566;2022-08-19T09:33:05;14.68;;;10.00;;
73670;SDS011;61968;48.178;11.566;2022-08-19T09:35:32;14.85;;;10.75;;
73670;SDS011;61968;48.178;11.566;2022-08-19T09:38:00;23.70;;;13.10;;
73670;SDS011;61968;48.178;11.566;2022-08-19T09:40:28;20.42;;;12.90;;
73670;SDS011;61968;48.178;11.566;2022-08-19T09:42:56;23.27;;;14.38;;
73670;SDS011;61968;48.178;11.566;2022-08-19T09:45:27;21.27;;;13.25;;
73670;SDS011;61968;48.178;11.566;2022-08-19T09:47:54;22.52;;;13.68;;
73670;SDS011;61968;48.178;11.566;2022-08-19T09:50:24;16.02;;;10.25;;
73670;SDS011;61968;48.178;11.566;2022-08-19T09:52:51;20.83;;;12.30;;
73670;SDS011;61968;48.178;11.566;2022-08-19T09:55:22;24.05;;;14.88;;
73670;SDS011;61968;48.178;11.566;2022-08-19T09:57:51;17.63;;;11.02;;
73670;SDS011;61968;48.178;11.566;2022-08-19T10:00:19;15.68;;;10.35;;
73670;SDS011;61968;48.178;11.566;2022-08-19T10:02:46;17.77;;;12.02;;
73670;SDS011;61968;48.178;11.566;2022-08-19T10:05:12;18.98;;;11.85;;
73670;SDS011;61968;48.178;11.566;2022-08-19T10:07:57;14.55;;;10.27;;
73670;SDS011;61968;48.178;11.566;2022-08-19T10:10:26;18.02;;;9.38;;
73670;SDS011;61968;48.178;11.566;2022-08-19T10:12:54;21.45;;;11.68;;
73670;SDS011;61968;48.178;11.566;2022-08-19T10:15:20;17.55;;;11.63;;
73670;SDS011;61968;48.178;11.566;2022-08-19T10:17:47;23.77;;;13.85;;
73670;SDS011;61968;48.178;11.566;2022-08-19T10:20:14;18.05;;;12.02;;
73670;SDS011;61968;48.178;11.566;2022-08-19T10:22:40;14.20;;;9.27;;
73670;SDS011;61968;48.178;11.566;2022-08-19T10:25:08;14.30;;;9.93;;
73670;SDS011;61968;48.178;11.566;2022-08-19T10:27:35;15.20;;;9.63;;
73670;SDS011;61968;48.178;11.566;2022-08-19T10:30:04;17.70;;;10.32;;
73670;SDS011;61968;48.178;11.566;2022-08-19T10:32:32;18.50;;;9.85;;
73670;SDS011;61968;48.178;11.566;2022-08-19T10:34:58;12.00;;;8.30;;
73670;SDS011;61968;48.178;11.566;2022-08-19T10:37:25;12.55;;;8.48;;
73670;SDS011;61968;48.178;11.566;2022-08-19T10:39:52;14.35;;;9.68;;
73670;SDS011;61968;48.178;11.566;2022-08-19T10:42:18;12.43;;;8.70;;
73670;SDS011;61968;48.178;11.566;2022-08-19T10:44:45;13.82;;;9.55;;
73670;SDS011;61968;48.178;11.566;2022-08-19T10:47:14;9.38;;;7.22;;
73670;SDS011;61968;48.178;11.566;2022-08-19T10:49:41;11.07;;;7.72;;
73670;SDS011;61968;48.178;11.566;2022-08-19T10:52:21;11.18;;;7.85;;
73670;SDS011;61968;48.178;11.566;2022-08-19T10:55:00;12.35;;;8.75;;
73670;SDS011;61968;48.178;11.566;2022-08-19T10:57:44;11.20;;;8.15;;
73670;SDS011;61968;48.178;11.566;2022-08-19T11:00:11;10.15;;;7.50;;
73670;SDS011;61968;48.178;11.566;2022-08-19T11:02:40;10.15;;;7.85;;
73670;SDS011;61968;48.178;11.566;2022-08-19T11:05:07;13.43;;;9.13;;
73670;SDS011;61968;48.178;11.566;2022-08-19T11:07:35;12.05;;;8.52;;
73670;SDS011;61968;48.178;11.566;2022-08-19T11:10:03;11.77;;;6.13;;
73670;SDS011;61968;48.178;11.566;2022-08-19T11:12:29;12.27;;;9.57;;
73670;SDS011;61968;48.178;11.566;2022-08-19T11:14:57;12.48;;;7.03;;
73670;SDS011;61968;48.178;11.566;2022-08-19T11:17:24;10.40;;;6.95;;
73670;SDS011;61968;48.178;11.566;2022-08-19T11:19:52;7.95;;;5.65;;
73670;SDS011;61968;48.178;11.566;2022-08-19T11:22:18;10.15;;;6.57;;
73670;SDS011;61968;48.178;11.566;2022-08-19T11:24:45;6.32;;;5.63;;
73670;SDS011;61968;48.178;11.566;2022-08-19T11:27:11;10.52;;;8.45;;
73670;SDS011;61968;48.178;11.566;2022-08-19T11:29:39;12.38;;;8.02;;
73670;SDS011;61968;48.178;11.566;2022-08-19T11:32:07;10.52;;;6.20;;
73670;SDS011;61968;48.178;11.566;2022-08-19T11:34:35;7.75;;;6.68;;
73670;SDS011;61968;48.178;11.566;2022-08-19T11:37:03;4.50;;;3.72;;
73670;SDS011;61968;48.178;11.566;2022-08-19T11:39:31;4.68;;;4.20;;
73670;SDS011;61968;48.178;11.566;2022-08-19T11:41:59;5.53;;;2.95;;
73670;SDS011;61968;48.178;11.566;2022-08-19T11:44:27;5.07;;;3.47;;
73670;SDS011;61968;48.178;11.566;2022-08-19T11:46:55;3.10;;;2.90;;
73670;SDS011;61968;48.178;11.566;2022-08-19T11:49:22;2.60;;;2.40;;
73670;SDS011;61968;48.178;11.566;2022-08-19T11:51:49;2.33;;;2.13;;
73670;SDS011;61968;48.178;11.566;2022-08-19T11:54:17;2.55;;;2.33;;
73670;SDS011;61968;48.178;11.566;2022-08-19T11:56:43;2.90;;;2.00;;
73670;SDS011;61968;48.178;11.566;2022-08-19T11:59:12;1.67;;;1.55;;
73670;SDS011;61968;48.178;11.566;2022-08-19T12:01:39;1.95;;;1.85;;
73670;SDS011;61968;48.178;11.566;2022-08-19T12:04:07;2.95;;;2.42;;
73670;SDS011;61968;48.178;11.566;2022-08-19T12:06:34;2.25;;;2.00;;
73670;SDS011;61968;48.178;11.566;2022-08-19T12:09:05;1.33;;;1.23;;
73670;SDS011;61968;48.178;11.566;2022-08-19T12:11:34;2.05;;;1.45;;
73670;SDS011;61968;48.178;11.566;2022-08-19T12:14:02;7.70;;;1.50;;
73670;SDS011;61968;48.178;11.566;2022-08-19T12:16:30;2.13;;;1.40;;
73670;SDS011;61968;48.178;11.566;2022-08-19T12:18:57;1.60;;;1.50;;
73670;SDS011;61968;48.178;11.566;2022-08-19T12:21:28;4.60;;;3.03;;
73670;SDS011;61968;48.178;11.566;2022-08-19T12:23:56;2.78;;;2.50;;
73670;SDS011;61968;48.178;11.566;2022-08-19T12:26:24;13.27;;;8.63;;
73670;SDS011;61968;48.178;11.566;2022-08-19T12:28:53;6.57;;;4.47;;
73670;SDS011;61968;48.178;11.566;2022-08-19T12:31:20;3.30;;;3.00;;
73670;SDS011;61968;48.178;11.566;2022-08-19T12:33:47;2.28;;;2.03;;
73670;SDS011;61968;48.178;11.566;2022-08-19T12:36:14;1.75;;;1.63;;
73670;SDS011;61968;48.178;11.566;2022-08-19T12:38:42;1.50;;;1.27;;
73670;SDS011;61968;48.178;11.566;2022-08-19T12:41:10;1.02;;;1.02;;
73670;SDS011;61968;48.178;11.566;2022-08-19T12:43:38;1.65;;;1.17;;
73670;SDS011;61968;48.178;11.566;2022-08-19T12:46:07;0.95;;;0.95;;
73670;SDS011;61968;48.178;11.566;2022-08-19T12:48:34;14.02;;;7.90;;
73670;SDS011;61968;48.178;11.566;2022-08-19T12:51:05;4.35;;;3.67;;
73670;SDS011;61968;48.178;11.566;2022-08-19T12:53:32;12.38;;;6.85;;
73670;SDS011;61968;48.178;11.566;2022-08-19T12:55:59;2.72;;;2.45;;
73670;SDS011;61968;48.178;11.566;2022-08-19T12:58:25;1.42;;;1.33;;
73670;SDS011;61968;48.178;11.566;2022-08-19T13:00:53;1.70;;;1.00;;
73670;SDS011;61968;48.178;11.566;2022-08-19T13:03:21;1.73;;;1.38;;
73670;SDS011;61968;48.178;11.566;2022-08-19T13:05:52;1.70;;;1.60;;
73670;SDS011;61968;48.178;11.566;2022-08-19T13:08:18;1.70;;;1.60;;
73670;SDS011;61968;48.178;11.566;2022-08-19T13:10:45;1.92;;;1.60;;
73670;SDS011;61968;48.178;11.566;2022-08-19T13:13:11;1.05;;;0.93;;
73670;SDS011;61968;48.178;11.566;2022-08-19T13:15:39;1.08;;;1.00;;
73670;SDS011;61968;48.178;11.566;2022-08-19T13:18:08;1.05;;;0.90;;
73670;SDS011;61968;48.178;11.566;2022-08-19T13:20:37;0.90;;;0.90;;
73670;SDS011;61968;48.178;11.566;2022-08-19T13:23:05;1.40;;;1.05;;
73670;SDS011;61968;48.178;11.566;2022-08-19T13:25:32;1.63;;;1.10;;
73670;SDS011;61968;48.178;11.566;2022-08-19T13:27:59;1.27;;;1.17;;
73670;SDS011;61968;48.178;11.566;2022-08-19T13:30:26;3.92;;;1.40;;
73670;SDS011;61968;48.178;11.566;2022-08-19T13:33:10;4.47;;;1.20;;
73670;SDS011;61968;48.178;11.566;2022-08-19T13:35:38;0.90;;;0.90;;
73670;SDS011;61968;48.178;11.566;2022-08-19T13:38:06;1.33;;;1.02;;
73670;SDS011;61968;48.178;11.566;2022-08-19T13:40:32;1.90;;;1.20;;
73670;SDS011;61968;48.178;11.566;2022-08-19T13:43:00;2.38;;;1.58;;
73670;SDS011;61968;48.178;11.566;2022-08-19T13:45:29;1.55;;;1.40;;
73670;SDS011;61968;48.178;11.566;2022-08-19T13:47:59;1.30;;;1.20;;
73670;SDS011;61968;48.178;11.566;2022-08-19T13:50:29;2.33;;;2.13;;
73670;SDS011;61968;48.178;11.566;2022-08-19T13:52:58;2.00;;;1.70;;
73670;SDS011;61968;48.178;11.566;2022-08-19T13:55:25;1.80;;;1.70;;
73670;SDS011;61968;48.178;11.566;2022-08-19T13:57:53;1.50;;;1.25;;
73670;SDS011;61968;48.178;11.566;2022-08-19T14:00:20;1.42;;;1.33;;
73670;SDS011;61968;48.178;11.566;2022-08-19T14:02:50;1.83;;;1.42;;
73670;SDS011;61968;48.178;11.566;2022-08-19T14:05:18;2.40;;;2.13;;
73670;SDS011;61968;48.178;11.566;2022-08-19T14:07:45;1.90;;;1.80;;
73670;SDS011;61968;48.178;11.566;2022-08-19T14:10:14;2.30;;;2.05;;
73670;SDS011;61968;48.178;11.566;2022-08-19T14:12:42;4.28;;;2.40;;
73670;SDS011;61968;48.178;11.566;2022-08-19T14:15:10;1.77;;;1.67;;
73670;SDS011;61968;48.178;11.566;2022-08-19T14:17:38;1.83;;;1.73;;
73670;SDS011;61968;48.178;11.566;2022-08-19T14:20:06;1.60;;;1.50;;
73670;SDS011;61968;48.178;11.566;2022-08-19T14:22:34;1.90;;;1.80;;
73670;SDS011;61968;48.178;11.566;2022-08-19T14:25:02;2.42;;;2.22;;
73670;SDS011;61968;48.178;11.566;2022-08-19T14:27:31;3.25;;;2.95;;
73670;SDS011;61968;48.178;11.566;2022-08-19T14:29:59;2.63;;;2.42;;
73670;SDS011;61968;48.178;11.566;2022-08-19T14:32:25;1.90;;;1.80;;
73670;SDS011;61968;48.178;11.566;2022-08-19T14:34:52;2.30;;;2.10;;
73670;SDS011;61968;48.178;11.566;2022-08-19T14:37:19;2.35;;;1.98;;